createdAt,value
2019-02-16T00:02:25.535Z,7.85
2019-02-16T00:04:52.827Z,7.87
2019-02-16T00:07:19.847Z,8.70
2019-02-16T00:09:47.102Z,6.17
2019-02-16T00:12:14.126Z,7.60
2019-02-16T00:14:41.268Z,6.92
2019-02-16T00:17:08.359Z,7.20
2019-02-16T00:19:35.567Z,6.97
2019-02-16T00:22:02.878Z,7.92
2019-02-16T00:24:30.407Z,6.35
2019-02-16T00:26:57.433Z,7.53
2019-02-16T00:29:25.085Z,6.05
2019-02-16T00:31:52.507Z,10.25
2019-02-16T00:34:19.695Z,7.45
2019-02-16T00:36:47.166Z,5.95
2019-02-16T00:39:14.387Z,6.12
2019-02-16T00:41:41.506Z,5.97
2019-02-16T00:44:08.821Z,6.05
2019-02-16T00:46:36.322Z,7.78
2019-02-16T00:49:03.336Z,7.30
2019-02-16T00:51:30.732Z,7.85
2019-02-16T00:53:58.782Z,5.83
2019-02-16T00:56:25.835Z,6.60
2019-02-16T00:58:53.291Z,5.80
2019-02-16T01:01:20.518Z,6.12
2019-02-16T01:03:47.617Z,4.78
2019-02-16T01:06:15.304Z,9.48
2019-02-16T01:08:42.422Z,6.62
2019-02-16T01:11:09.499Z,6.62
2019-02-16T01:13:36.885Z,6.45
2019-02-16T01:16:03.894Z,4.72
2019-02-16T01:18:31.400Z,8.68
2019-02-16T01:20:58.496Z,5.58
2019-02-16T01:23:25.747Z,8.73
2019-02-16T01:25:52.836Z,5.35
2019-02-16T01:28:20.090Z,5.25
2019-02-16T01:30:47.502Z,5.58
2019-02-16T01:33:14.716Z,6.90
2019-02-16T01:35:42.160Z,6.53
2019-02-16T01:38:09.270Z,5.55
2019-02-16T01:40:36.284Z,9.18
2019-02-16T01:43:03.720Z,8.33
2019-02-16T01:45:31.333Z,6.80
2019-02-16T01:47:58.647Z,8.25
2019-02-16T01:50:25.738Z,9.80
2019-02-16T01:52:52.906Z,7.62
2019-02-16T01:55:20.118Z,6.15
2019-02-16T01:57:47.429Z,8.10
2019-02-16T02:00:14.497Z,7.65
2019-02-16T02:02:41.586Z,8.18
2019-02-16T02:05:08.779Z,7.08
2019-02-16T02:07:36.499Z,8.83
2019-02-16T02:10:04.231Z,6.90
2019-02-16T02:12:31.319Z,8.45
2019-02-16T02:14:58.638Z,6.65
2019-02-16T02:17:25.776Z,7.05
2019-02-16T02:19:52.943Z,7.28
2019-02-16T02:22:20.204Z,6.65
2019-02-16T02:24:47.413Z,7.78
2019-02-16T02:27:15.052Z,6.33
2019-02-16T02:29:42.296Z,7.28
2019-02-16T02:32:09.408Z,7.47
2019-02-16T02:34:36.579Z,6.08
2019-02-16T02:37:04.060Z,7.80
2019-02-16T02:39:31.258Z,6.17
2019-02-16T02:41:58.421Z,7.05
2019-02-16T02:44:25.685Z,5.92
2019-02-16T02:46:53.208Z,8.35
2019-02-16T02:49:20.449Z,6.72
2019-02-16T02:51:52.375Z,5.87
2019-02-16T02:54:16.667Z,9.95
2019-02-16T02:56:43.921Z,7.90
2019-02-16T02:59:10.986Z,6.50
2019-02-16T03:01:39.539Z,8.03
2019-02-16T03:04:06.616Z,7.90
2019-02-16T03:06:34.008Z,6.90
2019-02-16T03:09:01.474Z,6.30
2019-02-16T03:11:28.704Z,6.28
2019-02-16T03:13:56.062Z,6.10
2019-02-16T03:16:23.569Z,6.70
2019-02-16T03:18:50.713Z,7.42
2019-02-16T03:21:17.812Z,7.62
2019-02-16T03:23:44.837Z,7.60
2019-02-16T03:26:37.073Z,5.40
2019-02-16T03:29:09.017Z,6.97
2019-02-16T03:32:24.420Z,6.50
2019-02-16T03:34:59.971Z,6.42
2019-02-16T03:37:58.797Z,8.25
2019-02-16T03:40:26.006Z,5.58
2019-02-16T03:42:53.227Z,7.05
2019-02-16T03:45:20.342Z,5.47
2019-02-16T03:47:47.689Z,6.30
2019-02-16T03:50:14.813Z,6.65
2019-02-16T03:52:42.173Z,6.95
2019-02-16T03:55:09.359Z,7.37
2019-02-16T03:57:36.436Z,5.92
2019-02-16T04:00:04.144Z,7.55
2019-02-16T04:02:31.390Z,7.83
2019-02-16T04:04:58.515Z,8.60
2019-02-16T04:07:25.705Z,7.35
2019-02-16T04:09:54.935Z,5.25
2019-02-16T04:12:22.101Z,7.42
2019-02-16T04:14:49.171Z,7.45
2019-02-16T04:17:16.490Z,5.97
2019-02-16T04:19:43.691Z,6.72
2019-02-16T04:22:10.690Z,6.58
2019-02-16T04:24:38.084Z,6.12
2019-02-16T04:27:05.128Z,6.00
2019-02-16T04:29:32.999Z,6.67
2019-02-16T04:32:00.065Z,6.33
2019-02-16T04:34:27.171Z,7.83
2019-02-16T04:36:55.490Z,5.53
2019-02-16T04:39:22.488Z,8.23
2019-02-16T04:41:49.599Z,6.60
2019-02-16T04:44:17.203Z,7.00
2019-02-16T04:46:44.650Z,5.85
2019-02-16T04:49:11.885Z,6.60
2019-02-16T04:51:38.869Z,6.78
2019-02-16T04:54:07.757Z,6.20
2019-02-16T04:56:35.451Z,6.15
2019-02-16T04:59:02.532Z,4.92
2019-02-16T05:01:29.783Z,6.60
2019-02-16T05:03:56.796Z,6.65
2019-02-16T05:06:24.450Z,9.33
2019-02-16T05:08:51.576Z,6.10
2019-02-16T05:11:18.640Z,6.05
2019-02-16T05:13:45.994Z,6.47
2019-02-16T05:16:13.001Z,7.20
2019-02-16T05:18:40.227Z,5.55
2019-02-16T05:21:07.277Z,8.10
2019-02-16T05:23:34.517Z,5.65
2019-02-16T05:26:02.180Z,7.22
2019-02-16T05:28:29.234Z,7.28
2019-02-16T05:30:56.294Z,5.92
2019-02-16T05:33:23.631Z,6.45
2019-02-16T05:35:50.850Z,5.67
2019-02-16T05:38:17.934Z,5.92
2019-02-16T05:40:45.485Z,6.03
2019-02-16T05:43:12.581Z,8.40
2019-02-16T05:45:39.852Z,5.83
2019-02-16T05:48:06.921Z,6.62
2019-02-16T05:50:36.620Z,7.33
2019-02-16T05:53:04.444Z,6.28
2019-02-16T05:55:31.441Z,6.08
2019-02-16T05:57:59.912Z,7.00
2019-02-16T06:00:29.059Z,8.40
2019-02-16T06:02:56.495Z,5.42
2019-02-16T06:05:23.635Z,7.53
2019-02-16T06:07:50.663Z,7.58
2019-02-16T06:10:18.151Z,5.83
2019-02-16T06:12:46.007Z,6.67
2019-02-16T06:15:16.079Z,6.97
2019-02-16T06:17:43.068Z,5.80
2019-02-16T06:20:10.098Z,5.75
2019-02-16T06:22:37.170Z,8.53
2019-02-16T06:25:04.435Z,6.12
2019-02-16T06:27:32.095Z,6.47
2019-02-16T06:29:59.937Z,5.60
2019-02-16T06:32:27.955Z,6.33
2019-02-16T06:35:06.819Z,5.65
2019-02-16T06:37:33.930Z,6.58
2019-02-16T06:40:01.434Z,6.40
2019-02-16T06:42:28.707Z,5.85
2019-02-16T06:44:55.941Z,8.38
2019-02-16T06:47:23.245Z,7.60
2019-02-16T06:49:50.308Z,8.65
2019-02-16T06:52:17.335Z,5.83
2019-02-16T06:54:44.685Z,7.45
2019-02-16T06:57:31.427Z,7.00
2019-02-16T06:59:58.765Z,6.33
2019-02-16T07:02:27.608Z,7.03
2019-02-16T07:04:54.677Z,5.95
2019-02-16T07:07:23.675Z,7.00
2019-02-16T07:09:50.726Z,8.58
2019-02-16T07:12:18.254Z,8.15
2019-02-16T07:14:45.587Z,7.08
2019-02-16T07:17:43.352Z,6.72
2019-02-16T07:20:10.829Z,6.70
2019-02-16T07:22:38.197Z,7.58
2019-02-16T07:25:06.098Z,6.87
2019-02-16T07:27:33.572Z,9.13
2019-02-16T07:30:00.975Z,9.15
2019-02-16T07:32:28.470Z,5.97
2019-02-16T07:34:55.761Z,7.90
2019-02-16T07:37:22.871Z,7.65
2019-02-16T07:39:50.268Z,7.37
2019-02-16T07:42:17.692Z,5.87
2019-02-16T07:45:08.035Z,6.85
2019-02-16T07:47:47.150Z,6.95
2019-02-16T07:50:19.234Z,7.80
2019-02-16T07:53:06.658Z,7.97
2019-02-16T07:55:49.250Z,10.45
2019-02-16T07:58:32.997Z,6.83
2019-02-16T08:01:18.547Z,6.92
2019-02-16T08:04:11.392Z,11.50
2019-02-16T08:06:45.346Z,6.03
2019-02-16T08:09:24.359Z,7.00
2019-02-16T08:12:02.092Z,11.73
2019-02-16T08:14:46.421Z,7.55
2019-02-16T08:17:33.125Z,8.45
2019-02-16T08:20:19.646Z,8.25
2019-02-16T08:23:12.993Z,9.48
2019-02-16T08:25:58.039Z,9.15
2019-02-16T08:28:30.351Z,9.43
2019-02-16T08:31:35.365Z,22.73
2019-02-16T08:34:16.189Z,10.93
2019-02-16T08:36:48.815Z,14.30
2019-02-16T08:39:25.018Z,12.23
2019-02-16T08:42:10.559Z,13.85
2019-02-16T08:44:44.846Z,11.48
2019-02-16T08:47:20.383Z,8.35
2019-02-16T08:50:10.149Z,9.95
2019-02-16T08:53:08.844Z,12.45
2019-02-16T08:56:01.561Z,12.37
2019-02-16T08:58:51.854Z,8.80
2019-02-16T09:01:38.987Z,9.55
2019-02-16T09:04:41.109Z,10.03
2019-02-16T09:07:19.244Z,10.28
2019-02-16T09:10:14.980Z,10.75
2019-02-16T09:13:02.351Z,9.10
2019-02-16T09:15:47.831Z,9.73
2019-02-16T09:18:39.844Z,8.93
2019-02-16T09:21:16.517Z,11.40
2019-02-16T09:23:58.877Z,8.43
2019-02-16T09:26:56.726Z,13.45
2019-02-16T09:29:32.545Z,9.88
2019-02-16T09:32:31.548Z,9.98
2019-02-16T09:35:17.298Z,9.90
2019-02-16T09:37:51.956Z,10.72
2019-02-16T09:40:37.368Z,13.05
2019-02-16T09:43:20.323Z,10.58
2019-02-16T09:45:56.656Z,11.10
2019-02-16T09:48:35.617Z,10.55
2019-02-16T09:51:24.498Z,11.48
2019-02-16T09:54:11.592Z,10.90
2019-02-16T09:56:46.483Z,10.90
2019-02-16T09:59:35.486Z,11.20
2019-02-16T10:02:10.963Z,12.30
2019-02-16T10:05:03.562Z,13.88
2019-02-16T10:08:05.842Z,12.53
2019-02-16T10:10:49.447Z,11.25
2019-02-16T10:13:33.850Z,10.03
2019-02-16T10:16:19.382Z,11.57
2019-02-16T10:19:12.060Z,14.33
2019-02-16T10:21:51.326Z,11.80
2019-02-16T10:24:46.712Z,13.53
2019-02-16T10:27:34.148Z,14.15
2019-02-16T10:30:13.616Z,16.05
2019-02-16T10:33:06.144Z,17.15
2019-02-16T10:35:48.284Z,13.75
2019-02-16T10:38:37.941Z,14.20
2019-02-16T10:41:27.358Z,15.50
2019-02-16T10:44:16.305Z,14.60
2019-02-16T10:47:14.995Z,17.50
2019-02-16T10:50:07.942Z,16.95
2019-02-16T10:53:06.871Z,16.10
2019-02-16T10:55:50.843Z,17.15
2019-02-16T10:58:40.998Z,18.70
2019-02-16T11:01:43.036Z,25.57
2019-02-16T11:04:38.013Z,17.37
2019-02-16T11:07:13.719Z,15.15
2019-02-16T11:10:18.711Z,26.00
2019-02-16T11:13:11.380Z,21.97
2019-02-16T11:15:48.109Z,16.10
2019-02-16T11:18:32.526Z,19.12
2019-02-16T11:21:22.893Z,17.23
2019-02-16T11:24:09.634Z,19.20
2019-02-16T11:26:58.461Z,16.35
2019-02-16T11:29:44.325Z,19.48
2019-02-16T11:32:46.052Z,16.15
2019-02-16T11:35:22.158Z,21.62
2019-02-16T11:38:07.919Z,24.20
2019-02-16T11:40:55.578Z,20.45
2019-02-16T11:43:45.880Z,19.30
2019-02-16T11:46:34.056Z,21.57
2019-02-16T11:49:10.596Z,20.27
2019-02-16T11:51:57.390Z,19.27
2019-02-16T11:54:34.285Z,23.77
2019-02-16T11:57:17.571Z,18.45
2019-02-16T11:59:56.930Z,20.92
2019-02-16T12:02:53.050Z,19.57
2019-02-16T12:05:42.181Z,18.95
2019-02-16T12:08:30.867Z,18.57
2019-02-16T12:11:05.524Z,23.00
2019-02-16T12:13:39.533Z,23.02
2019-02-16T12:16:25.148Z,21.48
2019-02-16T12:19:06.990Z,22.07
2019-02-16T12:21:42.626Z,22.17
2019-02-16T12:24:24.670Z,22.62
2019-02-16T12:27:08.939Z,21.87
2019-02-16T12:29:49.391Z,22.40
2019-02-16T12:32:32.375Z,21.97
2019-02-16T12:35:25.262Z,25.75
2019-02-16T12:38:05.527Z,19.15
2019-02-16T12:40:41.308Z,21.37
2019-02-16T12:43:20.090Z,22.25
2019-02-16T12:46:06.760Z,19.42
2019-02-16T12:49:08.880Z,21.57
2019-02-16T12:51:50.195Z,23.83
2019-02-16T12:54:35.958Z,22.85
2019-02-16T12:57:07.900Z,21.82
2019-02-16T12:59:44.097Z,29.07
2019-02-16T13:02:30.196Z,24.65
2019-02-16T13:05:24.361Z,22.15
2019-02-16T13:08:13.784Z,21.82
2019-02-16T13:10:49.983Z,21.45
2019-02-16T13:13:24.732Z,18.05
2019-02-16T13:15:59.104Z,19.85
2019-02-16T13:18:32.366Z,18.00
2019-02-16T13:21:19.402Z,18.07
2019-02-16T13:24:06.199Z,18.80
2019-02-16T13:26:42.089Z,17.17
2019-02-16T13:29:29.160Z,21.48
2019-02-16T13:32:16.181Z,22.35
2019-02-16T13:35:02.034Z,21.77
2019-02-16T13:37:34.589Z,19.80
2019-02-16T13:40:20.103Z,19.87
2019-02-16T13:42:55.519Z,23.12
2019-02-16T13:45:42.223Z,21.25
2019-02-16T13:48:23.621Z,20.32
2019-02-16T13:50:59.696Z,17.52
2019-02-16T13:53:46.590Z,17.92
2019-02-16T13:56:23.796Z,18.87
2019-02-16T13:59:13.472Z,19.85
2019-02-16T14:01:48.540Z,19.05
2019-02-16T14:04:32.027Z,16.70
2019-02-16T14:07:30.706Z,17.77
2019-02-16T14:10:08.618Z,17.35
2019-02-16T14:12:54.146Z,19.73
2019-02-16T14:15:50.012Z,20.02
2019-02-16T14:18:17.072Z,19.85
2019-02-16T14:20:44.143Z,21.87
2019-02-16T14:23:12.001Z,19.82
2019-02-16T14:25:45.707Z,19.70
2019-02-16T14:28:13.159Z,20.05
2019-02-16T14:30:40.550Z,21.12
2019-02-16T14:33:07.957Z,21.33
2019-02-16T14:35:35.422Z,20.40
2019-02-16T14:38:24.938Z,17.77
2019-02-16T14:40:52.380Z,19.10
2019-02-16T14:43:19.793Z,20.12
2019-02-16T14:45:46.979Z,19.67
2019-02-16T14:48:14.443Z,28.57
2019-02-16T14:50:42.200Z,21.17
2019-02-16T14:53:10.244Z,20.23
2019-02-16T14:55:37.258Z,22.80
2019-02-16T14:58:04.242Z,26.27
2019-02-16T15:00:31.468Z,21.55
2019-02-16T15:02:58.516Z,23.50
2019-02-16T15:05:25.979Z,23.18
2019-02-16T15:07:53.282Z,21.17
2019-02-16T15:10:20.480Z,19.98
2019-02-16T15:12:47.510Z,24.75
2019-02-16T15:15:14.843Z,22.07
2019-02-16T15:17:42.066Z,27.00
2019-02-16T15:20:11.470Z,25.60
2019-02-16T15:22:38.625Z,29.72
2019-02-16T15:25:07.394Z,30.10
2019-02-16T15:27:34.913Z,31.23
2019-02-16T15:30:02.497Z,40.38
2019-02-16T15:32:29.633Z,30.32
2019-02-16T15:34:56.991Z,37.50
2019-02-16T15:37:24.622Z,48.25
2019-02-16T15:39:52.038Z,40.15
2019-02-16T15:42:19.089Z,23.83
2019-02-16T15:44:46.422Z,25.85
2019-02-16T15:47:13.754Z,31.60
2019-02-16T15:49:41.215Z,38.95
2019-02-16T15:52:08.482Z,39.73
2019-02-16T15:54:35.771Z,28.57
2019-02-16T15:57:03.087Z,38.92
2019-02-16T15:59:35.270Z,43.75
2019-02-16T16:01:59.480Z,33.50
2019-02-16T16:04:27.240Z,42.98
2019-02-16T16:06:54.427Z,31.30
2019-02-16T16:09:53.146Z,32.93
2019-02-16T16:12:30.435Z,42.27
2019-02-16T16:15:09.021Z,53.80
2019-02-16T16:17:47.220Z,51.30
2019-02-16T16:20:21.026Z,63.87
2019-02-16T16:22:55.215Z,60.05
2019-02-16T16:25:33.365Z,39.30
2019-02-16T16:28:20.847Z,30.10
2019-02-16T16:31:11.555Z,45.83
2019-02-16T16:34:07.805Z,34.33
2019-02-16T16:36:58.009Z,33.78
2019-02-16T16:39:30.207Z,31.50
2019-02-16T16:42:26.247Z,32.75
2019-02-16T16:45:02.098Z,28.05
2019-02-16T16:47:48.923Z,32.93
2019-02-16T16:50:23.561Z,41.20
2019-02-16T16:53:17.506Z,48.35
2019-02-16T16:56:01.281Z,46.45
2019-02-16T16:58:37.654Z,39.73
2019-02-16T17:01:15.482Z,40.70
2019-02-16T17:04:05.305Z,42.17
2019-02-16T17:06:41.878Z,51.98
2019-02-16T17:09:32.398Z,56.63
2019-02-16T17:12:13.456Z,53.20
2019-02-16T17:14:57.695Z,51.75
2019-02-16T17:17:32.139Z,47.55
2019-02-16T17:20:18.790Z,54.05
2019-02-16T17:23:01.676Z,68.22
2019-02-16T17:25:39.819Z,62.93
2019-02-16T17:28:29.535Z,56.02
2019-02-16T17:31:10.090Z,53.02
2019-02-16T17:33:47.186Z,64.37
2019-02-16T17:36:37.021Z,54.03
2019-02-16T17:39:11.138Z,59.75
2019-02-16T17:42:00.643Z,60.88
2019-02-16T17:44:46.087Z,44.75
2019-02-16T17:47:31.730Z,35.55
2019-02-16T17:50:03.782Z,35.45
2019-02-16T17:52:49.006Z,41.10
2019-02-16T17:55:41.783Z,31.50
2019-02-16T17:58:23.987Z,29.92
2019-02-16T18:01:10.788Z,31.23
2019-02-16T18:03:57.546Z,39.38
2019-02-16T18:06:39.700Z,29.23
2019-02-16T18:09:16.619Z,25.57
2019-02-16T18:12:06.143Z,24.85
2019-02-16T18:14:39.380Z,25.85
2019-02-16T18:17:26.458Z,26.62
2019-02-16T18:20:02.295Z,23.07
2019-02-16T18:22:43.065Z,27.50
2019-02-16T18:25:15.614Z,30.52
2019-02-16T18:28:08.671Z,32.45
2019-02-16T18:30:53.749Z,34.03
2019-02-16T18:33:40.434Z,28.47
2019-02-16T18:36:17.339Z,30.40
2019-02-16T18:39:06.919Z,33.83
2019-02-16T18:41:56.617Z,30.08
2019-02-16T18:44:43.404Z,23.92
2019-02-16T18:47:26.791Z,26.00
2019-02-16T18:50:28.750Z,23.73
2019-02-16T18:53:14.022Z,27.77
2019-02-16T18:55:50.555Z,25.32
2019-02-16T18:58:31.846Z,24.77
2019-02-16T19:01:09.771Z,22.17
2019-02-16T19:03:55.103Z,26.17
2019-02-16T19:06:45.113Z,23.50
2019-02-16T19:09:28.858Z,23.62
2019-02-16T19:12:15.643Z,23.07
2019-02-16T19:15:06.267Z,26.80
2019-02-16T19:17:41.401Z,28.20
2019-02-16T19:20:32.880Z,21.97
2019-02-16T19:23:25.486Z,26.52
2019-02-16T19:26:24.678Z,25.80
2019-02-16T19:29:14.498Z,27.65
2019-02-16T19:31:56.387Z,24.50
2019-02-16T19:34:32.701Z,25.65
2019-02-16T19:37:18.216Z,27.25
2019-02-16T19:40:08.727Z,29.63
2019-02-16T19:42:58.500Z,25.00
2019-02-16T19:45:34.927Z,26.00
2019-02-16T19:48:33.637Z,26.00
2019-02-16T19:51:07.429Z,30.80
2019-02-16T19:53:43.627Z,28.90
2019-02-16T19:56:20.444Z,24.52
2019-02-16T19:59:01.204Z,27.07
2019-02-16T20:01:48.996Z,29.63
2019-02-16T20:04:34.279Z,29.32
2019-02-16T20:07:13.162Z,26.27
2019-02-16T20:10:02.893Z,25.82
2019-02-16T20:13:00.758Z,26.97
2019-02-16T20:15:49.095Z,26.87
2019-02-16T20:18:39.942Z,28.87
2019-02-16T20:21:19.566Z,30.00
2019-02-16T20:24:01.247Z,35.78
2019-02-16T20:26:50.551Z,35.83
2019-02-16T20:29:33.317Z,33.83
2019-02-16T20:32:32.255Z,38.63
2019-02-16T20:35:12.265Z,30.60
2019-02-16T20:37:45.406Z,37.75
2019-02-16T20:40:39.406Z,38.17
2019-02-16T20:43:26.276Z,40.70
2019-02-16T20:46:06.424Z,44.83
2019-02-16T20:48:50.578Z,39.70
2019-02-16T20:51:39.803Z,34.38
2019-02-16T20:54:30.447Z,41.28
2019-02-16T20:57:17.293Z,43.90
2019-02-16T20:59:49.574Z,39.58
2019-02-16T21:02:35.495Z,44.13
2019-02-16T21:05:26.479Z,34.60
2019-02-16T21:08:22.037Z,33.78
2019-02-16T21:11:03.560Z,38.28
2019-02-16T21:13:37.808Z,35.45
2019-02-16T21:16:20.100Z,40.52
2019-02-16T21:19:07.041Z,41.30
2019-02-16T21:22:12.158Z,35.58
2019-02-16T21:24:47.594Z,33.50
2019-02-16T21:27:25.735Z,31.68
2019-02-16T21:30:13.728Z,33.23
2019-02-16T21:32:56.419Z,33.83
2019-02-16T21:35:46.328Z,39.18
2019-02-16T21:38:31.735Z,31.45
2019-02-16T21:41:06.927Z,36.15
2019-02-16T21:44:13.708Z,41.45
2019-02-16T21:46:55.519Z,36.93
2019-02-16T21:49:36.382Z,37.80
2019-02-16T21:52:26.166Z,40.03
2019-02-16T21:55:11.895Z,36.83
2019-02-16T21:58:11.050Z,35.10
2019-02-16T22:00:48.891Z,31.82
2019-02-16T22:03:35.182Z,30.25
2019-02-16T22:06:33.810Z,27.85
2019-02-16T22:09:27.121Z,38.30
2019-02-16T22:12:15.956Z,35.68
2019-02-16T22:14:43.594Z,31.45
2019-02-16T22:17:12.204Z,27.93
2019-02-16T22:19:39.435Z,31.80
2019-02-16T22:22:06.829Z,33.40
2019-02-16T22:24:34.089Z,31.75
2019-02-16T22:27:01.253Z,29.82
2019-02-16T22:29:28.643Z,28.95
2019-02-16T22:31:55.928Z,29.85
2019-02-16T22:34:23.114Z,30.70
2019-02-16T22:36:50.428Z,29.32
2019-02-16T22:39:17.751Z,30.55
2019-02-16T22:41:44.758Z,30.65
2019-02-16T22:44:11.838Z,29.35
2019-02-16T22:46:38.841Z,29.23
2019-02-16T22:49:05.930Z,30.05
2019-02-16T22:51:33.028Z,33.25
2019-02-16T22:54:00.036Z,28.35
2019-02-16T22:56:27.046Z,29.10
2019-02-16T22:58:54.093Z,33.15
2019-02-16T23:01:21.307Z,33.58
2019-02-16T23:03:48.775Z,28.60
2019-02-16T23:06:16.015Z,33.40
2019-02-16T23:08:43.124Z,30.20
2019-02-16T23:11:10.332Z,30.75
2019-02-16T23:13:37.528Z,35.68
2019-02-16T23:16:04.961Z,34.98
2019-02-16T23:18:32.125Z,28.05
2019-02-16T23:20:59.684Z,28.87
2019-02-16T23:23:26.788Z,29.77
2019-02-16T23:25:53.909Z,27.70
2019-02-16T23:28:21.351Z,28.27
2019-02-16T23:30:48.845Z,28.32
2019-02-16T23:33:16.100Z,29.00
2019-02-16T23:35:43.375Z,30.00
2019-02-16T23:38:10.511Z,28.10
2019-02-16T23:40:37.669Z,28.77
2019-02-16T23:43:05.225Z,30.35
2019-02-16T23:45:32.400Z,28.40
2019-02-16T23:47:59.587Z,25.17
2019-02-16T23:50:26.881Z,29.95
2019-02-16T23:52:54.396Z,25.52
2019-02-16T23:55:21.904Z,28.27
2019-02-16T23:57:48.975Z,28.17
